Time;durP1;ratioP1;P1;durP2;ratioP2;P2;SDS_P1;SDS_P2;PMS_P1;PMS_P2;Temp;Humidity;BMP_temperature;BMP_pressure;BME280_temperature;BME280_humidity;BME280_pressure;Samples;Min_cycle;Max_cycle;Signal;HPM_P1;HPM_P2
2022/09/08 00:00:49;;;;;;;5.93;3.20;;;21.70;63.00;;;;;;5114918;28;20113;-69
2022/09/08 00:03:17;;;;;;;3.83;3.35;;;21.70;63.70;;;;;;5114899;28;20023;-68
2022/09/08 00:06:05;;;;;;;6.22;3.83;;;21.60;63.00;;;;;;5114842;28;20032;-68
2022/09/08 00:08:31;;;;;;;5.38;3.80;;;21.60;63.20;;;;;;5114832;28;20031;-68
2022/09/08 00:11:01;;;;;;;4.00;3.25;;;21.60;63.40;;;;;;5114930;28;20030;-68
2022/09/08 00:13:29;;;;;;;5.30;3.53;;;21.60;63.50;;;;;;5114734;28;20019;-68
2022/09/08 00:15:56;;;;;;;6.40;3.53;;;21.60;63.50;;;;;;5096479;28;20051;-68
2022/09/08 00:18:23;;;;;;;4.70;3.53;;;21.60;63.50;;;;;;5114705;28;20020;-68
2022/09/08 00:20:50;;;;;;;4.10;3.05;;;21.60;63.70;;;;;;5096133;28;20076;-68
2022/09/08 00:23:16;;;;;;;5.28;2.97;;;21.60;63.50;;;;;;5114553;28;20027;-68
2022/09/08 00:25:42;;;;;;;6.25;3.35;;;21.60;63.40;;;;;;5114438;28;20023;-69
2022/09/08 00:28:08;;;;;;;4.00;3.20;;;21.60;63.70;;;;;;5114507;28;20375;-68
2022/09/08 00:30:34;;;;;;;5.03;3.00;;;21.60;63.50;;;;;;5114111;28;20015;-68
2022/09/08 00:33:00;;;;;;;6.85;3.45;;;21.70;63.70;;;;;;5114301;28;20490;-67
2022/09/08 00:35:26;;;;;;;5.10;3.17;;;21.70;63.50;;;;;;5115517;27;20023;-68
2022/09/08 00:37:54;;;;;;;8.82;3.45;;;21.70;63.50;;;;;;5114260;28;20482;-68
2022/09/08 00:40:23;;;;;;;4.57;3.45;;;21.70;63.60;;;;;;5114134;28;20028;-68
2022/09/08 00:43:04;;;;;;;4.30;3.70;;;21.70;63.60;;;;;;5095941;28;20102;-68
2022/09/08 00:45:37;;;;;;;5.32;3.20;;;21.70;64.00;;;;;;5114063;28;20020;-68
2022/09/08 00:48:15;;;;;;;5.18;3.38;;;21.80;63.90;;;;;;5114136;28;20113;-68
2022/09/08 00:50:41;;;;;;;4.38;3.38;;;21.70;63.90;;;;;;5095740;28;20042;-68
2022/09/08 00:53:11;;;;;;;4.38;3.20;;;21.80;63.90;;;;;;5113998;28;20028;-68
2022/09/08 00:55:39;;;;;;;6.38;3.58;;;21.80;64.00;;;;;;5113992;28;20080;-68
2022/09/08 00:58:06;;;;;;;3.92;3.40;;;21.80;64.20;;;;;;5113974;28;20423;-68
2022/09/08 01:00:34;;;;;;;9.05;3.75;;;21.80;64.20;;;;;;5095642;28;20081;-68
2022/09/08 01:03:00;;;;;;;4.20;3.75;;;21.80;64.20;;;;;;5095610;28;20391;-68
2022/09/08 01:05:30;;;;;;;11.02;3.50;;;21.80;64.40;;;;;;5113736;28;20026;-68
2022/09/08 01:12:43;;;;;;;5.82;4.20;;;21.90;64.00;;;;;;5113750;28;20451;-69
2022/09/08 01:14:08;;;;;;;5.25;3.42;;;21.90;63.60;;;;;;5113543;28;20449;-68
2022/09/08 01:16:42;;;;;;;7.35;3.60;;;22.00;63.60;;;;;;5113897;28;20019;-68
2022/09/08 01:19:31;;;;;;;7.55;3.72;;;22.00;63.50;;;;;;5115766;27;20119;-68
2022/09/08 01:22:22;;;;;;;6.00;3.10;;;22.00;63.30;;;;;;5134158;27;20062;-68
2022/09/08 01:25:35;;;;;;;4.07;3.00;;;22.00;63.20;;;;;;5133999;27;20033;-68
2022/09/08 01:28:13;;;;;;;3.47;3.00;;;22.00;63.00;;;;;;5124594;27;20033;-68
2022/09/08 01:30:39;;;;;;;4.22;2.88;;;22.10;63.00;;;;;;5115424;27;20030;-68
2022/09/08 01:33:07;;;;;;;3.85;3.00;;;22.10;62.90;;;;;;5122552;27;20511;-68
2022/09/08 01:35:38;;;;;;;6.00;3.60;;;22.10;63.00;;;;;;5113257;28;20057;-68
2022/09/08 01:38:05;;;;;;;9.00;3.80;;;22.10;63.10;;;;;;5113212;28;20103;-68
2022/09/08 01:40:31;;;;;;;4.75;4.07;;;22.10;63.00;;;;;;5113271;28;20077;-68
2022/09/08 01:42:57;;;;;;;4.38;3.47;;;22.10;63.20;;;;;;5094292;28;20032;-68
2022/09/08 01:45:23;;;;;;;6.57;3.55;;;22.10;63.10;;;;;;5113138;28;20104;-68
2022/09/08 01:47:50;;;;;;;6.90;4.03;;;22.10;63.10;;;;;;5113071;28;20027;-68
2022/09/08 01:50:16;;;;;;;5.63;3.85;;;22.10;63.30;;;;;;5113032;28;20078;-68
2022/09/08 01:52:42;;;;;;;7.68;4.80;;;22.10;63.30;;;;;;5113084;28;20413;-68
2022/09/08 01:55:08;;;;;;;5.63;3.97;;;22.10;63.20;;;;;;5112888;28;20034;-68
2022/09/08 01:57:34;;;;;;;4.40;3.15;;;22.20;63.20;;;;;;5113014;28;20024;-68
2022/09/08 02:00:00;;;;;;;7.50;4.30;;;22.20;63.20;;;;;;5112994;28;20092;-68
2022/09/08 02:02:26;;;;;;;3.92;3.47;;;22.20;63.20;;;;;;5112946;28;20024;-68
2022/09/08 02:04:52;;;;;;;4.57;3.88;;;22.20;63.00;;;;;;5112923;28;20107;-68
2022/09/08 02:07:18;;;;;;;3.88;3.13;;;22.20;63.00;;;;;;5094629;28;20474;-68
2022/09/08 02:09:45;;;;;;;5.80;3.67;;;22.30;63.00;;;;;;5112899;28;20055;-68
2022/09/08 02:12:10;;;;;;;7.03;4.63;;;22.30;63.10;;;;;;5112894;28;20051;-68
2022/09/08 02:14:36;;;;;;;10.77;4.55;;;22.30;63.00;;;;;;5112856;28;20063;-68
2022/09/08 02:17:03;;;;;;;6.35;4.35;;;22.30;62.70;;;;;;5112843;28;20024;-68
2022/09/08 02:19:29;;;;;;;8.35;4.70;;;22.40;62.50;;;;;;5112646;28;20050;-68
2022/09/08 02:21:54;;;;;;;13.40;4.95;;;22.30;62.20;;;;;;5112832;28;20051;-68
2022/09/08 02:24:20;;;;;;;9.98;5.47;;;22.30;62.10;;;;;;5112690;28;20558;-68
2022/09/08 02:26:46;;;;;;;11.30;5.93;;;22.30;61.90;;;;;;5112865;28;20042;-68
2022/09/08 02:29:12;;;;;;;11.10;4.82;;;22.30;62.10;;;;;;5112629;28;20023;-68
2022/09/08 02:31:38;;;;;;;14.40;5.30;;;22.30;62.10;;;;;;5112536;28;20044;-67
2022/09/08 02:34:04;;;;;;;17.33;5.80;;;22.30;62.10;;;;;;5133300;28;20028;-68
2022/09/08 02:36:30;;;;;;;12.40;5.10;;;22.30;62.40;;;;;;5133230;28;20035;-68
2022/09/08 02:38:56;;;;;;;9.65;4.32;;;22.20;62.30;;;;;;5133203;28;20142;-68
2022/09/08 02:41:24;;;;;;;7.45;4.70;;;22.20;62.20;;;;;;5133126;28;20407;-68
2022/09/08 02:43:49;;;;;;;8.38;4.00;;;22.20;62.00;;;;;;5114569;28;20023;-68
2022/09/08 02:46:16;;;;;;;9.18;4.30;;;22.20;61.90;;;;;;5132968;28;20084;-68
2022/09/08 02:48:42;;;;;;;12.38;4.43;;;22.10;61.90;;;;;;5133052;28;20011;-68
2022/09/08 02:51:10;;;;;;;11.45;5.13;;;22.10;62.20;;;;;;5094658;28;20034;-68
2022/09/08 02:53:37;;;;;;;13.02;4.72;;;22.10;62.30;;;;;;5112866;28;20020;-68
2022/09/08 02:56:03;;;;;;;16.08;5.07;;;22.00;62.40;;;;;;5116196;28;20095;-68
2022/09/08 02:58:29;;;;;;;17.10;5.65;;;22.00;62.90;;;;;;5116099;28;20501;-68
2022/09/08 03:00:55;;;;;;;26.52;6.45;;;22.00;63.10;;;;;;5116059;28;20019;-68
2022/09/08 03:03:22;;;;;;;12.38;5.28;;;21.90;63.60;;;;;;5116028;28;20023;-68
2022/09/08 03:05:48;;;;;;;7.68;5.50;;;21.90;63.60;;;;;;5115956;28;20049;-68
2022/09/08 03:08:15;;;;;;;9.38;5.00;;;21.80;63.90;;;;;;5097543;28;20019;-68
2022/09/08 03:10:41;;;;;;;8.57;4.72;;;21.70;64.10;;;;;;5115906;28;20102;-68
2022/09/08 03:13:08;;;;;;;10.82;4.78;;;21.70;64.20;;;;;;5115886;28;20096;-68
2022/09/08 03:15:34;;;;;;;8.30;5.10;;;21.70;64.10;;;;;;5097832;28;20065;-68
2022/09/08 03:18:04;;;;;;;9.95;4.72;;;21.70;63.90;;;;;;5115763;28;20045;-68
2022/09/08 03:20:31;;;;;;;7.60;5.03;;;21.60;64.10;;;;;;5097072;28;20138;-68
2022/09/08 03:22:58;;;;;;;8.10;4.93;;;21.60;64.60;;;;;;5115321;28;20075;-68
2022/09/08 03:25:24;;;;;;;11.38;5.00;;;21.50;64.70;;;;;;5115537;28;20387;-67
2022/09/08 03:27:50;;;;;;;11.63;5.68;;;21.50;64.80;;;;;;5115532;28;20355;-67
2022/09/08 03:30:17;;;;;;;13.23;5.28;;;21.50;64.90;;;;;;5097097;28;20026;-68
2022/09/08 03:32:45;;;;;;;10.48;4.63;;;21.40;65.30;;;;;;5115250;28;20044;-67
2022/09/08 03:35:13;;;;;;;8.93;4.85;;;21.40;65.50;;;;;;5115453;28;20033;-68
2022/09/08 03:37:39;;;;;;;7.93;4.72;;;21.40;65.50;;;;;;5115301;28;20020;-67
2022/09/08 03:40:15;;;;;;;7.93;4.60;;;21.40;65.50;;;;;;5115299;28;20020;-68
2022/09/08 03:42:43;;;;;;;12.43;4.93;;;21.40;65.50;;;;;;5115238;28;20119;-67
2022/09/08 03:45:14;;;;;;;7.90;5.15;;;21.40;65.50;;;;;;5115091;28;20112;-67
2022/09/08 03:47:42;;;;;;;7.63;4.57;;;21.30;65.80;;;;;;5115137;28;20027;-67
2022/09/08 03:50:09;;;;;;;10.40;5.15;;;21.30;65.80;;;;;;5096732;28;20366;-67
2022/09/08 03:52:35;;;;;;;12.80;5.47;;;21.30;65.70;;;;;;5115124;28;20024;-67
2022/09/08 03:55:01;;;;;;;12.23;5.30;;;21.30;66.00;;;;;;5114935;28;20076;-67
2022/09/08 03:57:28;;;;;;;6.25;5.25;;;21.20;65.90;;;;;;5114856;28;20434;-68
2022/09/08 03:59:57;;;;;;;6.93;4.75;;;21.20;66.10;;;;;;5114847;28;20024;-68
2022/09/08 04:02:24;;;;;;;10.60;5.50;;;21.20;66.00;;;;;;5114840;28;20028;-68
2022/09/08 04:04:51;;;;;;;6.85;4.35;;;21.20;66.00;;;;;;5114730;28;20434;-67
2022/09/08 04:07:19;;;;;;;7.00;3.97;;;21.20;65.80;;;;;;5114072;28;20073;-68
2022/09/08 04:09:45;;;;;;;5.57;4.30;;;21.20;65.60;;;;;;5114677;28;20024;-67
2022/09/08 04:12:11;;;;;;;10.90;4.78;;;21.10;65.50;;;;;;5114607;28;20020;-68
2022/09/08 04:14:38;;;;;;;6.35;5.15;;;21.10;65.30;;;;;;5114495;28;20092;-67
2022/09/08 04:17:04;;;;;;;6.88;4.28;;;21.10;65.50;;;;;;5114494;28;20104;-68
2022/09/08 04:19:30;;;;;;;9.70;4.72;;;21.10;65.40;;;;;;5114257;28;20069;-68
2022/09/08 04:21:56;;;;;;;9.23;4.82;;;21.00;65.40;;;;;;5114360;28;20028;-68
2022/09/08 04:24:22;;;;;;;9.88;4.90;;;21.00;65.70;;;;;;5114267;28;20053;-67
2022/09/08 04:26:48;;;;;;;11.15;5.50;;;21.00;66.00;;;;;;5114306;28;20020;-67
2022/09/08 04:29:14;;;;;;;10.88;5.20;;;21.00;66.60;;;;;;5114022;28;20109;-68
2022/09/08 04:31:40;;;;;;;11.38;5.75;;;21.00;67.00;;;;;;5114051;28;20044;-67
2022/09/08 04:34:06;;;;;;;11.82;5.22;;;20.90;67.30;;;;;;5114153;28;20023;-67
2022/09/08 04:36:32;;;;;;;9.15;6.03;;;20.90;67.60;;;;;;5113909;28;20028;-68
2022/09/08 04:38:59;;;;;;;10.00;5.55;;;20.90;67.50;;;;;;5113995;28;20038;-67
2022/09/08 04:41:27;;;;;;;10.07;5.43;;;20.90;67.50;;;;;;5113935;28;20023;-67
2022/09/08 04:43:55;;;;;;;7.35;5.03;;;20.90;67.80;;;;;;5113873;28;20047;-67
2022/09/08 04:46:21;;;;;;;13.18;5.68;;;20.90;67.90;;;;;;5113914;28;20038;-67
2022/09/08 04:48:47;;;;;;;10.15;6.60;;;20.90;67.80;;;;;;5113896;28;20106;-68
2022/09/08 04:51:16;;;;;;;9.02;5.85;;;20.90;67.70;;;;;;5113549;28;20027;-68
2022/09/08 04:53:43;;;;;;;11.50;5.57;;;20.80;67.60;;;;;;5113859;28;20031;-67
2022/09/08 04:56:10;;;;;;;8.02;5.15;;;20.90;67.70;;;;;;5113770;28;20024;-67
2022/09/08 04:58:40;;;;;;;9.57;5.03;;;20.90;67.60;;;;;;5113715;28;20049;-67
2022/09/08 05:01:09;;;;;;;9.95;5.57;;;21.00;67.50;;;;;;5113676;28;20419;-67
2022/09/08 05:03:35;;;;;;;8.50;4.65;;;21.10;67.40;;;;;;5113622;28;20467;-67
2022/09/08 05:06:09;;;;;;;7.65;4.85;;;21.10;67.30;;;;;;5113520;28;20027;-68
2022/09/08 05:08:35;;;;;;;;;;;21.20;67.10;;;;;;5113990;28;20098;-67
2022/09/08 05:11:02;;;;;;;5.07;4.45;;;21.30;66.70;;;;;;5113360;28;20432;-67
2022/09/08 05:13:29;;;;;;;6.65;4.72;;;21.40;66.60;;;;;;5113379;28;20023;-67
2022/09/08 05:16:10;;;;;;;5.97;4.45;;;21.40;66.40;;;;;;5094878;28;20024;-67
2022/09/08 05:18:36;;;;;;;5.22;4.30;;;21.50;66.30;;;;;;5112361;28;20020;-67
2022/09/08 05:21:03;;;;;;;8.88;4.75;;;21.50;66.10;;;;;;5113191;28;20129;-67
2022/09/08 05:23:28;;;;;;;7.38;4.40;;;21.60;65.90;;;;;;5112936;28;20394;-67
2022/09/08 05:26:03;;;;;;;8.65;4.45;;;21.60;65.60;;;;;;5112980;28;20035;-67
2022/09/08 05:28:31;;;;;;;6.55;4.93;;;21.60;65.50;;;;;;5113069;28;20103;-68
2022/09/08 05:30:59;;;;;;;7.50;5.20;;;21.60;65.40;;;;;;5113081;28;20020;-68
2022/09/08 05:33:25;;;;;;;9.55;5.30;;;21.60;65.40;;;;;;5112849;28;20046;-68
2022/09/08 05:35:51;;;;;;;7.80;4.88;;;21.60;65.40;;;;;;5112996;28;20019;-67
2022/09/08 05:38:17;;;;;;;6.88;4.85;;;21.60;65.50;;;;;;5113020;28;20031;-67
2022/09/08 05:40:43;;;;;;;9.35;5.28;;;21.60;65.40;;;;;;5112954;28;20023;-68
2022/09/08 05:43:09;;;;;;;5.60;4.15;;;21.60;65.40;;;;;;5113017;28;20030;-67
2022/09/08 05:45:34;;;;;;;6.35;4.65;;;21.60;65.40;;;;;;5112790;28;20094;-67
2022/09/08 05:48:00;;;;;;;8.02;5.13;;;21.70;65.50;;;;;;5112940;28;20024;-67
2022/09/08 05:50:26;;;;;;;5.97;4.32;;;21.70;65.60;;;;;;5112698;28;20028;-68
2022/09/08 05:52:52;;;;;;;10.80;4.70;;;21.70;65.60;;;;;;5112982;28;20047;-68
2022/09/08 05:55:18;;;;;;;10.82;5.45;;;21.70;65.60;;;;;;5112902;28;20069;-68
2022/09/08 05:57:44;;;;;;;9.00;4.93;;;21.70;65.60;;;;;;5112902;28;20020;-68
2022/09/08 06:00:11;;;;;;;14.65;5.18;;;21.70;65.70;;;;;;5112789;28;20433;-68
2022/09/08 06:02:37;;;;;;;8.93;4.80;;;21.80;65.90;;;;;;5112816;28;20178;-67
2022/09/08 06:05:03;;;;;;;10.43;4.97;;;21.80;65.90;;;;;;5112771;28;20028;-67
2022/09/08 06:07:31;;;;;;;8.60;5.90;;;21.90;66.10;;;;;;5112861;28;20429;-67
2022/09/08 06:09:57;;;;;;;10.38;5.90;;;22.00;65.80;;;;;;5094650;28;20043;-67
2022/09/08 06:12:23;;;;;;;9.00;5.25;;;22.00;65.70;;;;;;5112713;28;20463;-67
2022/09/08 06:14:49;;;;;;;9.02;5.88;;;22.10;65.50;;;;;;5112777;28;20024;-67
2022/09/08 06:17:14;;;;;;;7.55;4.57;;;22.20;65.60;;;;;;5094555;28;20430;-67
2022/09/08 06:19:40;;;;;;;7.68;5.28;;;22.40;65.70;;;;;;5094441;28;20498;-68
2022/09/08 06:22:06;;;;;;;12.57;6.13;;;22.60;65.90;;;;;;5094415;28;20410;-67
2022/09/08 06:24:31;;;;;;;12.77;6.35;;;22.80;65.20;;;;;;5112659;28;20497;-68
2022/09/08 06:27:16;;;;;;;13.10;5.07;;;23.00;64.60;;;;;;5112572;28;20030;-68
2022/09/08 06:30:01;;;;;;;7.53;5.40;;;23.30;64.20;;;;;;5114766;28;20020;-67
2022/09/08 06:32:33;;;;;;;6.70;5.60;;;23.50;63.30;;;;;;5116431;28;20039;-68
2022/09/08 06:35:22;;;;;;;10.95;5.43;;;23.70;62.20;;;;;;5116645;28;20020;-68
2022/09/08 06:37:55;;;;;;;9.73;6.32;;;23.90;61.60;;;;;;5116613;28;20073;-67
2022/09/08 06:40:39;;;;;;;8.07;5.15;;;24.10;60.80;;;;;;5116460;28;20487;-68
2022/09/08 06:43:32;;;;;;;7.57;5.60;;;24.20;60.40;;;;;;5116502;28;20068;-68
2022/09/08 06:46:04;;;;;;;9.23;6.07;;;24.30;59.90;;;;;;5116441;28;20107;-67
2022/09/08 06:48:35;;;;;;;10.75;5.93;;;24.50;59.50;;;;;;5098103;28;20019;-67
2022/09/08 06:51:16;;;;;;;8.32;5.97;;;24.50;59.40;;;;;;5116267;28;20489;-68
2022/09/08 06:54:20;;;;;;;7.68;5.55;;;24.50;59.10;;;;;;5116285;28;20020;-67
2022/09/08 06:56:58;;;;;;;11.30;4.93;;;24.50;58.90;;;;;;5116254;28;20029;-67
2022/09/08 07:00:01;;;;;;;12.48;5.95;;;24.50;58.60;;;;;;5116033;28;20020;-68
2022/09/08 07:03:16;;;;;;;11.10;5.93;;;24.40;58.50;;;;;;5115915;28;20102;-67
2022/09/08 07:05:54;;;;;;;8.70;5.45;;;24.40;58.80;;;;;;5033174;28;20034;-68
2022/09/08 07:08:26;;;;;;;11.93;6.32;;;24.40;58.60;;;;;;5095469;28;20069;-68
2022/09/08 07:11:30;;;;;;;44.95;7.15;;;24.40;58.70;;;;;;5115948;28;20023;-67
2022/09/08 07:14:07;;;;;;;8.02;4.65;;;24.40;58.70;;;;;;5097788;28;20481;-68
2022/09/08 07:16:45;;;;;;;8.52;4.93;;;24.40;58.60;;;;;;5115898;28;20424;-68
2022/09/08 07:19:32;;;;;;;6.43;4.78;;;24.40;58.60;;;;;;5115629;27;20027;-68
2022/09/08 07:22:25;;;;;;;7.60;4.95;;;24.40;59.20;;;;;;5115806;28;20424;-68
2022/09/08 07:24:56;;;;;;;8.07;5.10;;;24.40;58.60;;;;;;5115420;28;20060;-68
2022/09/08 07:27:24;;;;;;;12.73;5.57;;;24.40;58.30;;;;;;5115623;28;20141;-68
2022/09/08 07:29:56;;;;;;;8.63;5.22;;;24.40;58.20;;;;;;5115545;28;20016;-67
2022/09/08 07:32:30;;;;;;;16.40;5.05;;;24.40;58.00;;;;;;5115231;28;20032;-68
2022/09/08 07:35:04;;;;;;;5.93;4.70;;;24.40;58.20;;;;;;5115301;28;20061;-68
2022/09/08 07:37:51;;;;;;;15.45;5.60;;;24.40;58.00;;;;;;5115305;28;20424;-68
2022/09/08 07:40:39;;;;;;;7.35;5.15;;;24.40;58.20;;;;;;5114290;28;20097;-67
2022/09/08 07:43:10;;;;;;;10.40;5.35;;;24.50;58.40;;;;;;5115349;28;20084;-68
2022/09/08 07:45:46;;;;;;;7.45;5.22;;;24.50;58.30;;;;;;5115169;28;20023;-68
2022/09/08 07:48:20;;;;;;;13.55;6.13;;;24.60;58.10;;;;;;5115201;28;20065;-68
2022/09/08 07:50:59;;;;;;;7.28;5.03;;;24.70;58.10;;;;;;5115069;28;20027;-68
2022/09/08 07:53:49;;;;;;;11.20;5.38;;;24.80;58.30;;;;;;5115129;28;20024;-68
2022/09/08 07:56:32;;;;;;;11.30;5.75;;;24.90;58.20;;;;;;5115152;28;20019;-67
2022/09/08 07:59:04;;;;;;;14.02;5.78;;;25.00;57.80;;;;;;5115070;28;20524;-68
2022/09/08 08:01:57;;;;;;;6.85;6.00;;;25.10;57.80;;;;;;5114962;28;20374;-67
2022/09/08 08:04:57;;;;;;;6.97;5.17;;;25.20;57.50;;;;;;5103473;28;20032;-67
2022/09/08 08:07:31;;;;;;;10.02;4.85;;;25.40;57.90;;;;;;5114872;28;20332;-67
2022/09/08 08:10:21;;;;;;;9.98;5.38;;;25.50;57.60;;;;;;5114790;28;20072;-67
2022/09/08 08:13:05;;;;;;;9.23;5.28;;;25.60;57.70;;;;;;5114588;28;20386;-69
2022/09/08 08:15:46;;;;;;;10.18;5.38;;;25.60;57.50;;;;;;5096385;28;20058;-68
2022/09/08 08:18:30;;;;;;;12.68;5.63;;;25.70;57.10;;;;;;5114653;28;20054;-68
2022/09/08 08:21:00;;;;;;;5.82;4.35;;;25.70;57.00;;;;;;5114520;27;20054;-68
2022/09/08 08:23:34;;;;;;;12.05;4.90;;;25.70;56.80;;;;;;5114448;28;20035;-67
2022/09/08 08:26:07;;;;;;;8.00;5.38;;;25.60;56.70;;;;;;5114461;28;20028;-68
2022/09/08 08:28:40;;;;;;;10.80;5.18;;;25.60;56.70;;;;;;5114506;28;20012;-68
2022/09/08 08:31:24;;;;;;;12.10;5.93;;;25.50;56.80;;;;;;5114315;28;20050;-68
2022/09/08 08:34:03;;;;;;;9.40;4.65;;;25.50;56.80;;;;;;5073700;28;20074;-67
2022/09/08 08:36:33;;;;;;;10.77;5.75;;;25.40;56.90;;;;;;5073695;28;20044;-67
2022/09/08 08:39:23;;;;;;;11.88;4.68;;;25.30;56.90;;;;;;5073556;28;20027;-67
2022/09/08 08:41:58;;;;;;;10.48;5.00;;;25.30;57.20;;;;;;5073448;28;20025;-68
2022/09/08 08:44:48;;;;;;;10.45;5.32;;;25.20;57.10;;;;;;5072085;28;20109;-68
2022/09/08 08:47:32;;;;;;;8.00;4.60;;;25.20;57.40;;;;;;5072084;28;20025;-68
2022/09/08 08:50:34;;;;;;;7.25;4.40;;;25.20;57.60;;;;;;5073276;28;20017;-68
2022/09/08 08:53:51;;;;;;;14.60;4.80;;;25.20;57.60;;;;;;5073104;28;20020;-68
2022/09/08 08:56:38;;;;;;;13.27;5.00;;;25.10;57.40;;;;;;5042125;28;20039;-68
2022/09/08 08:59:37;;;;;;;14.25;5.25;;;25.10;57.20;;;;;;5073216;28;20483;-68
2022/09/08 09:02:13;;;;;;;7.13;4.53;;;25.00;57.30;;;;;;5073205;28;20025;-68
2022/09/08 09:05:08;;;;;;;10.85;5.38;;;25.00;57.30;;;;;;5073032;28;20032;-68
2022/09/08 09:07:43;;;;;;;14.07;4.53;;;24.90;57.40;;;;;;5071689;28;20024;-68
2022/09/08 09:10:30;;;;;;;7.28;4.35;;;24.80;57.50;;;;;;5073032;28;20059;-68
2022/09/08 09:13:23;;;;;;;17.13;4.93;;;24.80;57.70;;;;;;5072984;28;20024;-68
2022/09/08 09:16:16;;;;;;;5.30;4.50;;;24.70;57.70;;;;;;5072944;28;20029;-68
2022/09/08 09:19:00;;;;;;;7.78;4.63;;;24.70;57.90;;;;;;5072843;28;20025;-67
2022/09/08 09:21:34;;;;;;;8.38;4.50;;;24.70;57.90;;;;;;5072583;28;20169;-68
2022/09/08 09:24:12;;;;;;;8.32;4.45;;;24.80;58.10;;;;;;5071502;28;20089;-68
2022/09/08 09:26:47;;;;;;;9.38;4.28;;;24.90;58.20;;;;;;5072752;28;20091;-68
2022/09/08 09:29:26;;;;;;;6.20;3.92;;;25.20;58.00;;;;;;5072884;28;20013;-68
2022/09/08 09:32:10;;;;;;;7.57;4.82;;;25.50;58.00;;;;;;5083466;28;20040;-68
2022/09/08 09:35:10;;;;;;;6.43;3.67;;;25.80;56.80;;;;;;5095069;28;20038;-68
2022/09/08 09:37:36;;;;;;;4.80;3.40;;;26.20;56.30;;;;;;5113271;28;20031;-68
2022/09/08 09:40:25;;;;;;;7.25;3.28;;;26.40;55.40;;;;;;5113028;28;20027;-68
2022/09/08 09:43:02;;;;;;;8.50;2.83;;;26.70;53.90;;;;;;5113453;28;20421;-67
2022/09/08 09:45:52;;;;;;;5.68;2.45;;;26.80;53.10;;;;;;5094775;28;20088;-68
2022/09/08 09:48:36;;;;;;;3.45;2.00;;;26.90;52.30;;;;;;5113057;28;20015;-68
2022/09/08 09:51:19;;;;;;;3.45;1.70;;;27.00;52.00;;;;;;5112879;28;20052;-68
2022/09/08 09:54:06;;;;;;;9.20;1.85;;;27.10;51.80;;;;;;5113079;28;20055;-68
2022/09/08 09:57:08;;;;;;;3.35;1.77;;;27.00;50.10;;;;;;5112970;28;20470;-68
2022/09/08 10:00:02;;;;;;;4.20;1.10;;;26.90;51.10;;;;;;5113135;28;20016;-68
2022/09/08 10:02:50;;;;;;;1.58;1.10;;;26.90;50.80;;;;;;5113050;28;20102;-68
2022/09/08 10:05:37;;;;;;;2.38;1.17;;;26.80;50.10;;;;;;5116371;28;20035;-68
2022/09/08 10:08:42;;;;;;;2.35;0.80;;;26.60;49.80;;;;;;5099016;28;20547;-68
2022/09/08 10:11:17;;;;;;;4.45;0.95;;;26.40;50.00;;;;;;5099002;28;20027;-68
2022/09/08 10:13:55;;;;;;;1.80;1.10;;;26.30;50.20;;;;;;5117126;28;20023;-68
2022/09/08 10:16:29;;;;;;;2.20;1.10;;;26.10;50.50;;;;;;5098849;28;20053;-68
2022/09/08 10:19:07;;;;;;;2.13;0.93;;;26.00;50.90;;;;;;5117060;28;20072;-67
2022/09/08 10:21:39;;;;;;;2.45;0.80;;;26.00;50.50;;;;;;5116689;28;20482;-67
2022/09/08 10:24:21;;;;;;;2.35;0.70;;;25.80;49.80;;;;;;5116920;28;20382;-68
2022/09/08 10:27:01;;;;;;;3.00;0.98;;;25.80;50.10;;;;;;5116988;28;20098;-67
2022/09/08 10:29:36;;;;;;;2.50;1.00;;;25.70;49.80;;;;;;5117536;28;20060;-67
2022/09/08 10:32:34;;;;;;;1.45;0.93;;;25.70;50.60;;;;;;5116578;28;20043;-70
2022/09/08 10:35:18;;;;;;;3.83;0.95;;;25.60;50.40;;;;;;5116327;28;20070;-68
2022/09/08 10:37:59;;;;;;;2.05;0.80;;;25.70;50.70;;;;;;5116722;28;20023;-67
2022/09/08 10:40:30;;;;;;;2.15;0.80;;;25.80;51.00;;;;;;5116444;28;20024;-67
2022/09/08 10:43:20;;;;;;;6.03;1.10;;;25.90;50.80;;;;;;5098248;28;20023;-67
2022/09/08 10:46:10;;;;;;;3.33;1.00;;;26.00;50.90;;;;;;5126496;27;20431;-67
2022/09/08 10:49:31;;;;;;;3.22;0.93;;;26.00;50.70;;;;;;5137049;27;20020;-68
2022/09/08 10:52:07;;;;;;;4.05;1.30;;;25.90;50.60;;;;;;5088919;27;20031;-68
2022/09/08 10:55:05;;;;;;;1.55;0.90;;;25.90;50.50;;;;;;5136806;27;20019;-68
2022/09/08 10:57:54;;;;;;;1.27;0.60;;;25.80;50.70;;;;;;5135935;27;20397;-67
2022/09/08 11:00:22;;;;;;;1.10;0.73;;;25.80;51.50;;;;;;5136856;27;20076;-67
2022/09/08 11:03:12;;;;;;;6.43;1.50;;;25.70;52.00;;;;;;5136569;27;20019;-68
2022/09/08 11:05:48;;;;;;;1.58;1.02;;;25.60;52.80;;;;;;5136571;27;20027;-68
2022/09/08 11:08:55;;;;;;;2.05;0.80;;;25.50;53.20;;;;;;5136625;27;20022;-67
2022/09/08 11:11:58;;;;;;;2.42;0.85;;;25.30;53.80;;;;;;5136563;27;20030;-67
2022/09/08 11:15:18;;;;;;;3.13;1.17;;;25.10;54.10;;;;;;5136347;27;20387;-67
2022/09/08 11:17:47;;;;;;;1.58;1.00;;;24.90;54.30;;;;;;5016639;28;20087;-67
2022/09/08 11:20:48;;;;;;;2.80;1.02;;;24.70;54.90;;;;;;4996859;28;20465;-67
2022/09/08 11:23:26;;;;;;;2.72;1.00;;;24.50;55.30;;;;;;5013224;28;20437;-67
2022/09/08 11:26:14;;;;;;;1.38;0.70;;;24.40;56.20;;;;;;5013050;28;20057;-68
2022/09/08 11:29:03;;;;;;;2.40;0.77;;;24.20;55.90;;;;;;5013138;28;20042;-68
2022/09/08 11:31:54;;;;;;;3.50;0.90;;;24.10;56.10;;;;;;5012731;28;20026;-68
2022/09/08 11:34:28;;;;;;;1.13;0.77;;;24.00;56.20;;;;;;5012854;28;20374;-67
2022/09/08 11:37:15;;;;;;;1.58;0.70;;;23.90;56.60;;;;;;5012722;28;20026;-69
2022/09/08 11:40:08;;;;;;;1.48;0.70;;;23.70;57.00;;;;;;5012822;28;20448;-67
2022/09/08 11:42:52;;;;;;;1.13;0.60;;;23.60;57.80;;;;;;5028157;28;20041;-68
2022/09/08 11:45:38;;;;;;;3.67;0.90;;;23.60;59.20;;;;;;5032360;28;20079;-68
2022/09/08 11:48:39;;;;;;;5.93;1.00;;;23.50;59.50;;;;;;5068409;28;20016;-68
2022/09/08 11:51:39;;;;;;;2.90;1.13;;;23.40;60.20;;;;;;5059090;28;20119;-68
2022/09/08 11:54:25;;;;;;;0.57;0.57;;;23.40;60.60;;;;;;5109733;27;20115;-68
2022/09/08 11:57:16;;;;;;;1.83;1.20;;;23.30;59.90;;;;;;5100608;28;20397;-68
2022/09/08 12:00:06;;;;;;;3.58;0.80;;;23.30;59.60;;;;;;5114883;28;20413;-68
2022/09/08 12:02:34;;;;;;;0.60;0.60;;;23.30;59.40;;;;;;5114746;28;20505;-68
2022/09/08 12:05:25;;;;;;;2.40;0.85;;;23.20;59.90;;;;;;5114681;28;20114;-68
2022/09/08 12:08:29;;;;;;;0.98;0.80;;;23.20;60.70;;;;;;5114726;28;20468;-69
2022/09/08 12:10:55;;;;;;;;;;;23.20;60.90;;;;;;5073162;28;20046;-68
2022/09/08 12:13:29;;;;;;;1.27;0.63;;;23.30;59.60;;;;;;5096184;28;19908;-68
2022/09/08 12:16:05;;;;;;;1.13;0.70;;;23.30;59.90;;;;;;5114624;28;20069;-68
2022/09/08 12:18:49;;;;;;;5.22;0.93;;;23.20;60.10;;;;;;5114460;28;20089;-68
2022/09/08 12:21:45;;;;;;;1.10;0.70;;;23.20;60.40;;;;;;5114380;28;20060;-68
2022/09/08 12:24:16;;;;;;;2.67;0.80;;;23.30;60.50;;;;;;5114196;28;20226;-68
2022/09/08 12:27:10;;;;;;;1.63;0.98;;;23.30;60.50;;;;;;5113651;28;20019;-68
2022/09/08 12:29:49;;;;;;;2.50;0.90;;;23.40;60.30;;;;;;5114482;28;20086;-68
2022/09/08 12:32:41;;;;;;;2.42;1.13;;;23.40;60.20;;;;;;5114010;28;20044;-68
2022/09/08 12:35:29;;;;;;;1.40;0.70;;;23.40;60.00;;;;;;5114000;27;20019;-68
2022/09/08 12:38:17;;;;;;;2.63;0.90;;;23.40;60.30;;;;;;5114118;28;20479;-68
2022/09/08 12:41:21;;;;;;;0.93;0.80;;;23.50;60.10;;;;;;5114128;28;20031;-68
2022/09/08 12:43:47;;;;;;;1.25;0.80;;;23.50;59.70;;;;;;5114085;28;20023;-68
2022/09/08 12:46:30;;;;;;;1.13;1.02;;;23.50;60.00;;;;;;5113926;28;20105;-68
2022/09/08 12:49:32;;;;;;;0.98;0.52;;;23.60;59.70;;;;;;5095781;28;20019;-68
2022/09/08 12:52:02;;;;;;;2.50;0.95;;;23.60;59.50;;;;;;5113833;27;20032;-68
2022/09/08 12:54:34;;;;;;;1.20;0.60;;;23.60;59.60;;;;;;5113879;28;20059;-69
2022/09/08 12:57:08;;;;;;;1.52;0.70;;;23.70;59.50;;;;;;5113874;28;20386;-68
2022/09/08 12:59:55;;;;;;;1.10;0.63;;;23.70;59.10;;;;;;5113885;28;20076;-68
2022/09/08 13:02:54;;;;;;;1.45;0.80;;;23.70;59.10;;;;;;5113828;28;20054;-68
2022/09/08 13:05:41;;;;;;;6.45;1.00;;;23.90;59.20;;;;;;5113552;28;20027;-68
2022/09/08 13:08:28;;;;;;;2.33;0.77;;;24.10;58.80;;;;;;5113790;28;20419;-68
2022/09/08 13:11:22;;;;;;;2.80;0.70;;;24.20;57.90;;;;;;5113630;28;20019;-68
2022/09/08 13:13:48;;;;;;;1.98;0.75;;;24.40;57.60;;;;;;5095335;28;20423;-68
2022/09/08 13:16:28;;;;;;;4.30;0.80;;;24.50;56.60;;;;;;5113291;28;20133;-68
2022/09/08 13:18:57;;;;;;;0.88;0.70;;;24.50;56.10;;;;;;5113423;28;20031;-68
2022/09/08 13:22:00;;;;;;;1.08;0.68;;;24.50;56.20;;;;;;5113534;28;20512;-69
2022/09/08 13:24:41;;;;;;;1.67;0.77;;;24.50;56.10;;;;;;5086532;27;20043;-68
2022/09/08 13:27:19;;;;;;;7.30;0.70;;;24.50;56.10;;;;;;5134022;27;20308;-68
2022/09/08 13:29:59;;;;;;;2.72;0.98;;;24.40;55.40;;;;;;5133830;27;20076;-68
2022/09/08 13:32:34;;;;;;;1.40;0.88;;;24.40;55.40;;;;;;5115314;27;20042;-67
2022/09/08 13:35:20;;;;;;;2.03;0.98;;;24.30;55.30;;;;;;5133691;27;20426;-68